Time;durP1;ratioP1;P1;durP2;ratioP2;P2;SDS_P1;SDS_P2;PMS_P1;PMS_P2;Temp;Humidity;BMP_temperature;BMP_pressure;BME280_temperature;BME280_humidity;BME280_pressure;Samples;Min_cycle;Max_cycle;Signal;HPM_P1;HPM_P2
2023/04/01 00:00:13;;;;;;;9.23;4.25;;;384.40;2329.60;;;;;;5055285;28;20422;-78
2023/04/01 00:02:38;;;;;;;7.63;3.60;;;384.40;2329.60;;;;;;5055777;28;20382;-80
2023/04/01 00:05:05;;;;;;;10.00;4.53;;;384.20;2329.60;;;;;;5055648;28;20025;-71
2023/04/01 00:07:31;;;;;;;10.57;4.05;;;384.20;2329.60;;;;;;5055795;28;20096;-72
2023/04/01 00:09:57;;;;;;;5.97;3.17;;;384.40;2329.60;;;;;;5072071;28;20024;-78
2023/04/01 00:12:24;;;;;;;15.73;3.97;;;384.00;2329.60;;;;;;5060560;28;20017;-72
2023/04/01 00:14:51;;;;;;;11.77;4.55;;;384.10;2329.60;;;;;;5063303;28;20052;-74
2023/04/01 00:17:17;;;;;;;9.65;4.15;;;384.10;2329.60;;;;;;5054613;28;20091;-71
2023/04/01 00:19:43;;;;;;;11.15;4.68;;;384.00;2329.60;;;;;;5054904;28;20029;-70
2023/04/01 00:22:11;;;;;;;5.97;3.40;;;384.00;2329.60;;;;;;5067374;28;20046;-81
2023/04/01 00:24:37;;;;;;;8.77;3.67;;;384.10;2329.60;;;;;;5058723;28;20096;-71
2023/04/01 00:27:04;;;;;;;11.50;4.28;;;384.00;2329.60;;;;;;5054544;28;20017;-71
2023/04/01 00:29:30;;;;;;;9.68;4.28;;;384.20;2329.60;;;;;;5054655;28;20020;-71
2023/04/01 00:31:57;;;;;;;8.82;3.55;;;384.10;2329.60;;;;;;5057324;28;20024;-75
2023/04/01 00:34:23;;;;;;;10.82;3.80;;;384.20;2329.60;;;;;;5054694;28;20069;-71
2023/04/01 00:36:52;;;;;;;16.52;4.47;;;384.20;2329.60;;;;;;5054674;28;20017;-71
2023/04/01 00:39:19;;;;;;;8.15;4.75;;;384.10;2329.60;;;;;;5072254;28;20374;-71
2023/04/01 00:41:45;;;;;;;9.30;4.40;;;384.10;2329.60;;;;;;5054577;28;20074;-73
2023/04/01 00:44:21;;;;;;;7.05;3.92;;;384.00;2329.60;;;;;;5054430;28;20017;-71
2023/04/01 00:46:46;;;;;;;11.82;4.13;;;384.00;2329.60;;;;;;5054082;28;20049;-70
2023/04/01 00:49:13;;;;;;;10.05;4.18;;;384.10;2329.60;;;;;;5056406;28;20067;-75
2023/04/01 00:51:40;;;;;;;11.13;4.25;;;384.20;2329.60;;;;;;5054295;28;20063;-71
2023/04/01 00:54:08;;;;;;;9.63;4.20;;;384.10;2329.60;;;;;;5069501;28;20028;-71
2023/04/01 00:56:51;;;;;;;10.95;3.90;;;384.20;2329.60;;;;;;5055918;28;20017;-70
2023/04/01 00:59:33;;;;;;;8.35;4.13;;;384.30;2329.60;;;;;;5057001;28;20036;-71
2023/04/01 01:02:01;;;;;;;10.75;3.53;;;384.30;2329.60;;;;;;5059782;28;20108;-82
2023/04/01 01:04:30;;;;;;;12.77;4.53;;;384.30;2329.60;;;;;;5067960;28;20017;-70
2023/04/01 01:07:33;;;;;;;9.60;4.80;;;384.30;2329.60;;;;;;5056768;28;20017;-71
2023/04/01 01:10:18;;;;;;;10.95;5.30;;;384.30;2329.60;;;;;;5056629;28;20478;-74
2023/04/01 01:13:02;;;;;;;11.50;4.82;;;384.40;2329.60;;;;;;5053897;28;20032;-72
2023/04/01 01:15:31;;;;;;;9.35;3.38;;;384.40;2329.60;;;;;;5053847;28;20017;-70
2023/04/01 01:18:15;;;;;;;8.73;4.32;;;384.30;2329.60;;;;;;5056239;28;20040;-72
2023/04/01 01:21:20;;;;;;;11.30;4.00;;;384.30;2329.60;;;;;;5055138;28;20025;-80
2023/04/01 01:24:07;;;;;;;9.45;3.72;;;384.30;2329.60;;;;;;5054015;28;20021;-75
2023/04/01 01:26:38;;;;;;;12.93;3.97;;;384.10;2329.60;;;;;;5056626;28;20025;-74
2023/04/01 01:29:37;;;;;;;5.93;3.60;;;384.00;2329.60;;;;;;5058109;28;20106;-81
2023/04/01 01:32:09;;;;;;;8.32;4.22;;;384.10;2329.60;;;;;;5057019;28;20029;-71
2023/04/01 01:35:05;;;;;;;12.20;4.28;;;384.10;2329.60;;;;;;5054739;28;20024;-80
2023/04/01 01:37:32;;;;;;;9.13;4.00;;;384.20;2329.60;;;;;;5056145;28;20028;-70
2023/04/01 01:40:08;;;;;;;12.18;4.25;;;384.10;2329.60;;;;;;5053461;28;20278;-71
2023/04/01 01:42:38;;;;;;;8.55;4.00;;;384.10;2329.60;;;;;;5053393;28;20023;-72
2023/04/01 01:45:06;;;;;;;7.22;3.78;;;384.10;2329.60;;;;;;5053586;28;20385;-79
2023/04/01 01:47:34;;;;;;;9.82;4.78;;;384.10;2329.60;;;;;;5055884;28;20033;-72
2023/04/01 01:50:01;;;;;;;5.68;3.40;;;384.10;2329.60;;;;;;5053387;28;20063;-71
2023/04/01 01:52:30;;;;;;;11.10;4.55;;;384.10;2329.60;;;;;;5052985;28;20024;-71
2023/04/01 01:54:57;;;;;;;8.77;4.05;;;384.10;2329.60;;;;;;5053256;28;20450;-82
2023/04/01 01:57:31;;;;;;;8.07;4.20;;;384.00;2329.60;;;;;;5053033;28;20088;-77
2023/04/01 02:00:12;;;;;;;10.48;3.92;;;384.00;2329.60;;;;;;5053136;28;20025;-71
2023/04/01 02:02:40;;;;;;;10.93;4.40;;;384.00;2329.60;;;;;;5052904;28;20024;-82
2023/04/01 02:05:10;;;;;;;9.60;3.85;;;359.30;2329.60;;;;;;5053181;28;20118;-81
2023/04/01 02:07:39;;;;;;;6.38;3.97;;;359.30;2329.60;;;;;;5052367;28;20070;-72
2023/04/01 02:10:06;;;;;;;6.13;3.45;;;359.30;2329.60;;;;;;5052911;28;20227;-81
2023/04/01 02:12:33;;;;;;;8.95;3.78;;;359.20;2329.60;;;;;;5055505;28;20483;-73
2023/04/01 02:15:12;;;;;;;9.30;4.13;;;359.20;2329.60;;;;;;5055590;28;20151;-71
2023/04/01 02:17:43;;;;;;;10.43;3.30;;;359.20;2329.60;;;;;;5052453;28;20036;-71
2023/04/01 02:20:14;;;;;;;10.85;3.40;;;359.10;2329.60;;;;;;5055079;28;20112;-71
2023/04/01 02:22:46;;;;;;;11.85;3.30;;;359.10;2329.60;;;;;;5052762;28;20024;-72
2023/04/01 02:25:20;;;;;;;11.27;3.78;;;359.10;2329.60;;;;;;5052320;28;20600;-70
2023/04/01 02:27:47;;;;;;;11.77;4.65;;;359.10;2329.60;;;;;;5055211;28;20543;-71
2023/04/01 02:30:15;;;;;;;13.30;4.05;;;359.00;2329.60;;;;;;5052337;28;20024;-70
2023/04/01 02:32:41;;;;;;;11.80;4.47;;;359.00;2329.60;;;;;;5052385;28;20025;-70
2023/04/01 02:35:13;;;;;;;8.00;4.25;;;359.00;2329.60;;;;;;5052711;28;20026;-71
2023/04/01 02:37:42;;;;;;;10.18;3.65;;;359.00;2329.60;;;;;;5052593;28;20025;-73
2023/04/01 02:40:09;;;;;;;8.68;3.90;;;359.00;2329.60;;;;;;5052560;28;20032;-71
2023/04/01 02:42:35;;;;;;;13.05;5.05;;;359.00;2329.60;;;;;;5052975;28;20027;-78
2023/04/01 02:45:01;;;;;;;9.73;4.20;;;359.00;2329.60;;;;;;5055521;28;20029;-71
2023/04/01 02:47:27;;;;;;;7.03;3.90;;;359.00;2329.60;;;;;;5051758;28;20025;-72
2023/04/01 02:49:58;;;;;;;9.70;4.10;;;359.00;2329.60;;;;;;5069810;28;20039;-71
2023/04/01 02:52:27;;;;;;;8.52;4.80;;;358.90;2329.60;;;;;;5052263;28;20024;-71
2023/04/01 02:54:54;;;;;;;15.25;4.47;;;358.90;2329.60;;;;;;5052221;28;20013;-71
2023/04/01 02:57:19;;;;;;;10.45;4.38;;;358.80;2329.60;;;;;;5052026;28;20052;-73
2023/04/01 02:59:45;;;;;;;11.25;5.45;;;358.80;2329.60;;;;;;5052173;28;20060;-71
2023/04/01 03:02:11;;;;;;;11.70;5.07;;;358.70;2329.60;;;;;;5051340;28;20520;-72
2023/04/01 03:04:37;;;;;;;7.32;4.55;;;358.80;2329.60;;;;;;5052386;28;20075;-71
2023/04/01 03:07:02;;;;;;;15.90;5.28;;;358.70;2329.60;;;;;;5072276;28;20370;-78
2023/04/01 03:09:28;;;;;;;8.82;4.82;;;358.80;2329.60;;;;;;5071976;28;20009;-71
2023/04/01 03:11:54;;;;;;;15.68;5.10;;;358.70;2329.60;;;;;;5060266;28;20359;-71
2023/04/01 03:14:20;;;;;;;14.65;5.25;;;358.70;2329.60;;;;;;5051477;28;20021;-71
2023/04/01 03:16:46;;;;;;;17.65;5.28;;;358.70;2329.60;;;;;;5051326;28;20029;-82
2023/04/01 03:19:12;;;;;;;11.45;6.22;;;358.80;2329.60;;;;;;5051345;28;20032;-72
2023/04/01 03:21:37;;;;;;;10.27;4.93;;;358.80;2329.60;;;;;;5054600;28;20029;-72
2023/04/01 03:24:03;;;;;;;11.32;5.35;;;358.80;2329.60;;;;;;5055433;28;20027;-71
2023/04/01 03:26:29;;;;;;;11.68;6.00;;;358.70;2329.60;;;;;;5058077;28;20021;-71
2023/04/01 03:28:55;;;;;;;11.80;5.35;;;358.70;2329.60;;;;;;5055216;28;20032;-70
2023/04/01 03:31:21;;;;;;;17.17;6.32;;;358.70;2329.60;;;;;;5070496;28;20025;-79
2023/04/01 03:33:47;;;;;;;10.60;5.22;;;358.70;2329.60;;;;;;5055078;28;20028;-71
2023/04/01 03:36:13;;;;;;;13.15;5.55;;;358.80;2329.60;;;;;;5056437;28;20082;-70
2023/04/01 03:38:40;;;;;;;9.55;5.72;;;358.80;2329.60;;;;;;5055075;28;20029;-71
2023/04/01 03:41:07;;;;;;;9.40;5.90;;;358.70;2329.60;;;;;;5055050;28;20021;-78
2023/04/01 03:43:33;;;;;;;11.40;5.30;;;358.70;2329.60;;;;;;5070578;28;20078;-73
2023/04/01 03:45:59;;;;;;;10.65;5.85;;;358.70;2329.60;;;;;;5069775;28;20059;-73
2023/04/01 03:48:25;;;;;;;15.82;5.82;;;358.70;2329.60;;;;;;5056630;28;20446;-76
2023/04/01 03:50:51;;;;;;;16.02;6.47;;;358.80;2329.60;;;;;;5071678;28;20017;-71
2023/04/01 03:53:17;;;;;;;19.40;7.47;;;358.70;2329.60;;;;;;5054867;28;20024;-75
2023/04/01 03:55:43;;;;;;;9.48;6.05;;;358.60;2329.60;;;;;;5057576;28;20013;-72
2023/04/01 03:58:09;;;;;;;11.90;6.22;;;358.70;2329.60;;;;;;5054932;28;20037;-81
2023/04/01 04:00:35;;;;;;;44.25;22.05;;;358.70;2329.60;;;;;;5070397;28;20935;-71
2023/04/01 04:03:01;;;;;;;24.85;12.93;;;358.60;2329.60;;;;;;5054597;28;20025;-76
2023/04/01 04:05:27;;;;;;;15.05;8.27;;;358.60;2329.60;;;;;;5054635;28;20027;-79
2023/04/01 04:07:54;;;;;;;12.27;6.65;;;358.70;2329.60;;;;;;5054736;28;20013;-71
2023/04/01 04:10:22;;;;;;;17.25;7.90;;;358.70;2329.60;;;;;;5054654;28;20025;-70
2023/04/01 04:12:49;;;;;;;14.77;6.88;;;358.70;2329.60;;;;;;5054501;28;20017;-71
2023/04/01 04:15:15;;;;;;;12.13;7.13;;;358.60;2329.60;;;;;;5054536;28;20523;-71
2023/04/01 04:17:41;;;;;;;15.57;6.22;;;358.70;2329.60;;;;;;5054048;28;20120;-70
2023/04/01 04:20:08;;;;;;;13.20;6.60;;;358.50;2329.60;;;;;;5057146;28;20108;-80
2023/04/01 04:22:34;;;;;;;12.13;6.10;;;358.80;2329.60;;;;;;5054347;28;20116;-71
2023/04/01 04:24:59;;;;;;;15.35;6.05;;;358.70;2329.60;;;;;;5057086;28;20061;-78
2023/04/01 04:27:25;;;;;;;11.25;6.32;;;358.70;2329.60;;;;;;5054346;28;20025;-71
2023/04/01 04:29:51;;;;;;;12.57;7.03;;;358.70;2329.60;;;;;;5064882;28;20024;-71
2023/04/01 04:32:17;;;;;;;11.05;6.63;;;358.70;2329.60;;;;;;5057264;28;20420;-72
2023/04/01 04:34:42;;;;;;;13.25;7.22;;;358.60;2329.60;;;;;;5054092;28;20032;-71
2023/04/01 04:37:08;;;;;;;16.10;7.35;;;358.50;2329.60;;;;;;5054603;28;20017;-71
2023/04/01 04:39:34;;;;;;;14.98;6.10;;;358.60;2329.60;;;;;;5053994;28;20470;-79
2023/04/01 04:41:59;;;;;;;13.45;6.35;;;358.70;2329.60;;;;;;5066384;28;20462;-73
2023/04/01 04:44:25;;;;;;;9.45;6.18;;;358.60;2329.60;;;;;;5053941;28;20117;-71
2023/04/01 04:46:51;;;;;;;13.77;6.72;;;358.50;2329.60;;;;;;5054321;28;20021;-75
2023/04/01 04:49:17;;;;;;;11.93;6.38;;;358.50;2329.60;;;;;;5055433;28;20067;-84
2023/04/01 04:51:42;;;;;;;11.43;6.22;;;358.50;2329.60;;;;;;5057676;28;20454;-74
2023/04/01 04:54:08;;;;;;;11.23;6.43;;;358.50;2329.60;;;;;;5073292;28;20029;-71
2023/04/01 04:56:35;;;;;;;12.45;7.30;;;358.50;2329.60;;;;;;5073860;28;20066;-69
2023/04/01 04:59:01;;;;;;;13.32;7.18;;;358.40;2329.60;;;;;;5074335;28;20112;-70
2023/04/01 05:01:27;;;;;;;14.20;6.95;;;358.40;2329.60;;;;;;5073942;28;20112;-71
2023/04/01 05:03:53;;;;;;;11.90;7.18;;;358.50;2329.60;;;;;;5074477;28;20401;-72
2023/04/01 05:06:20;;;;;;;13.90;6.95;;;333.70;2329.60;;;;;;5074954;28;20024;-70
2023/04/01 05:08:46;;;;;;;18.23;7.78;;;333.70;2329.60;;;;;;5074794;28;20103;-71
2023/04/01 05:11:20;;;;;;;13.93;7.25;;;358.40;2329.60;;;;;;5079812;28;20020;-72
2023/04/01 05:13:46;;;;;;;11.98;7.70;;;358.50;2329.60;;;;;;5075801;28;20048;-71
2023/04/01 05:16:18;;;;;;;13.38;6.88;;;358.50;2329.60;;;;;;5073193;28;20024;-72
2023/04/01 05:18:44;;;;;;;11.93;6.30;;;358.40;2329.60;;;;;;5089329;28;20141;-72
2023/04/01 05:21:12;;;;;;;14.38;7.93;;;333.70;2329.60;;;;;;5074963;28;20481;-71
2023/04/01 05:23:38;;;;;;;16.58;7.53;;;333.60;2329.60;;;;;;5074457;28;20033;-71
2023/04/01 05:26:06;;;;;;;12.65;6.95;;;333.70;2329.60;;;;;;5073977;28;20016;-71
2023/04/01 05:28:32;;;;;;;11.65;7.07;;;333.60;2329.60;;;;;;5073909;28;20033;-72
2023/04/01 05:31:00;;;;;;;13.75;7.90;;;333.70;2329.60;;;;;;5073693;28;20032;-71
2023/04/01 05:33:26;;;;;;;12.93;8.15;;;333.70;2329.60;;;;;;5073450;28;20182;-72
2023/04/01 05:35:52;;;;;;;14.35;8.65;;;333.70;2329.60;;;;;;5073438;28;20020;-74
2023/04/01 05:38:18;;;;;;;12.18;7.47;;;333.40;2329.60;;;;;;5073517;28;20024;-72
2023/04/01 05:40:44;;;;;;;14.38;7.95;;;333.60;2329.60;;;;;;5072684;28;20025;-71
2023/04/01 05:43:10;;;;;;;14.68;7.43;;;333.60;2329.60;;;;;;5073047;28;20048;-72
2023/04/01 05:45:36;;;;;;;12.63;8.07;;;333.70;2329.60;;;;;;5073365;28;20036;-70
2023/04/01 05:48:02;;;;;;;10.88;7.15;;;333.60;2329.60;;;;;;5073241;28;20076;-69
2023/04/01 05:50:27;;;;;;;15.88;8.07;;;333.50;2329.60;;;;;;5073644;28;20071;-69
2023/04/01 05:52:53;;;;;;;13.40;6.72;;;333.50;2329.60;;;;;;5073605;28;20376;-70
2023/04/01 05:55:19;;;;;;;15.40;7.53;;;333.60;2329.60;;;;;;5073628;28;20029;-70
2023/04/01 05:57:46;;;;;;;15.95;7.53;;;333.70;2329.60;;;;;;5073350;28;20082;-70
2023/04/01 06:00:12;;;;;;;13.13;7.82;;;333.70;2329.60;;;;;;5072510;28;20091;-70
2023/04/01 06:02:38;;;;;;;12.75;7.88;;;333.70;2329.60;;;;;;5073387;28;20024;-70
2023/04/01 06:05:10;;;;;;;16.60;8.13;;;333.70;2329.60;;;;;;5072848;28;20385;-72
2023/04/01 06:07:36;;;;;;;11.60;7.85;;;333.70;2329.60;;;;;;5073442;28;20481;-71
2023/04/01 06:10:09;;;;;;;15.45;8.07;;;333.70;2329.60;;;;;;5072824;28;20056;-71
2023/04/01 06:13:06;;;;;;;14.57;8.35;;;358.40;2329.60;;;;;;5073237;28;20060;-72
2023/04/01 06:15:32;;;;;;;;;;;358.40;2329.60;;;;;;5057795;28;20021;-76
2023/04/01 06:18:52;;;;;;;45.87;28.23;;;358.40;2329.60;;;;;;5086381;28;20331;-71
2023/04/01 06:21:42;;;;;;;16.85;11.00;;;358.50;2329.60;;;;;;5070844;28;20505;-70
2023/04/01 06:24:56;;;;;;;18.05;12.20;;;333.70;2329.60;;;;;;5071559;28;20370;-69
2023/04/01 06:27:49;;;;;;;20.20;11.65;;;333.70;2329.60;;;;;;4973439;28;20082;-70
2023/04/01 06:30:36;;;;;;;19.67;11.00;;;358.40;2329.60;;;;;;4990867;28;20034;-71
2023/04/01 06:33:04;;;;;;;;;;;333.70;2329.60;;;;;;4991311;28;20136;-71
2023/04/01 06:36:05;;;;;;;16.20;9.27;;;333.60;2329.60;;;;;;4990866;28;19909;-71
2023/04/01 06:38:46;;;;;;;14.40;8.02;;;333.70;2329.60;;;;;;4969523;28;20508;-73
2023/04/01 06:41:30;;;;;;;14.00;8.05;;;333.70;2329.60;;;;;;4974738;28;20038;-70
2023/04/01 06:44:20;;;;;;;13.10;7.32;;;358.40;2329.60;;;;;;4985237;28;20107;-74
2023/04/01 06:46:59;;;;;;;16.98;7.07;;;333.60;2329.60;;;;;;4971460;28;20034;-71
2023/04/01 06:49:52;;;;;;;15.20;7.22;;;333.60;2329.60;;;;;;4990556;28;20157;-71
2023/04/01 06:52:42;;;;;;;11.93;6.18;;;333.60;2329.60;;;;;;4990748;28;20038;-73
2023/04/01 06:55:19;;;;;;;8.48;5.25;;;333.60;2329.60;;;;;;4986402;28;20041;-70
2023/04/01 06:57:49;;;;;;;9.23;5.30;;;333.50;2329.60;;;;;;4994863;28;20508;-69
2023/04/01 07:00:30;;;;;;;12.30;5.53;;;333.50;2329.60;;;;;;4994739;28;20026;-69
2023/04/01 07:03:32;;;;;;;10.18;6.45;;;333.40;2329.60;;;;;;4976395;28;20551;-70
2023/04/01 07:06:03;;;;;;;8.50;5.68;;;333.40;2329.60;;;;;;5073617;28;20501;-73
2023/04/01 07:08:31;;;;;;;11.80;6.63;;;333.40;2329.60;;;;;;5076405;28;21948;-71
2023/04/01 07:11:04;;;;;;;10.02;6.78;;;333.40;2329.60;;;;;;5067844;28;20111;-72
2023/04/01 07:13:40;;;;;;;11.55;6.13;;;333.50;2329.60;;;;;;5070713;28;20028;-72
2023/04/01 07:16:20;;;;;;;10.82;5.55;;;333.50;2329.60;;;;;;5076107;28;20021;-71
2023/04/01 07:18:52;;;;;;;13.23;5.95;;;333.50;2329.60;;;;;;5075778;28;20477;-72
2023/04/01 07:21:28;;;;;;;10.80;6.35;;;333.50;2329.60;;;;;;5075844;28;20028;-72
2023/04/01 07:24:01;;;;;;;14.30;6.60;;;333.70;2329.60;;;;;;5075699;28;20024;-71
2023/04/01 07:26:27;;;;;;;12.40;6.60;;;333.70;2329.60;;;;;;5070402;28;20397;-70
2023/04/01 07:28:53;;;;;;;17.40;7.45;;;333.70;2329.60;;;;;;5075750;28;20478;-71
2023/04/01 07:31:34;;;;;;;11.18;6.85;;;333.70;2329.60;;;;;;5075868;28;20519;-76
2023/04/01 07:34:30;;;;;;;11.40;5.80;;;333.70;2329.60;;;;;;5075772;28;20029;-70
2023/04/01 07:37:14;;;;;;;15.38;7.78;;;333.70;2329.60;;;;;;5072808;28;20032;-71
2023/04/01 07:39:51;;;;;;;17.58;6.53;;;333.70;2329.60;;;;;;5073194;28;20036;-71
2023/04/01 07:42:48;;;;;;;16.50;8.07;;;358.50;2329.60;;;;;;5072691;28;20024;-71
2023/04/01 07:45:26;;;;;;;13.95;9.07;;;358.50;2329.60;;;;;;5090951;28;20027;-74
2023/04/01 07:48:04;;;;;;;16.27;9.45;;;358.50;2329.60;;;;;;5070393;28;20040;-71
2023/04/01 07:51:06;;;;;;;14.73;8.13;;;358.50;2329.60;;;;;;5075488;28;20043;-72
2023/04/01 07:53:51;;;;;;;11.95;7.80;;;358.50;2329.60;;;;;;5075075;28;20028;-71
2023/04/01 07:56:42;;;;;;;15.68;10.07;;;358.50;2329.60;;;;;;5074111;28;20025;-70
2023/04/01 07:59:35;;;;;;;13.57;8.85;;;358.50;2329.60;;;;;;5074167;28;20029;-70
2023/04/01 08:02:27;;;;;;;13.57;8.07;;;358.50;2329.60;;;;;;5075264;28;20028;-70
2023/04/01 08:05:00;;;;;;;13.23;8.07;;;358.40;2329.60;;;;;;5073001;28;20028;-70
2023/04/01 08:07:30;;;;;;;21.30;11.93;;;358.40;2329.60;;;;;;5074163;28;20060;-71
2023/04/01 08:10:08;;;;;;;14.38;9.55;;;358.40;2329.60;;;;;;5075032;28;20107;-70
2023/04/01 08:12:45;;;;;;;15.90;9.68;;;358.40;2329.60;;;;;;5071544;28;20108;-72
2023/04/01 08:15:14;;;;;;;14.43;8.10;;;358.40;2329.60;;;;;;5074245;28;20074;-71
2023/04/01 08:18:16;;;;;;;12.95;7.40;;;333.70;2329.60;;;;;;5070992;28;20033;-71
2023/04/01 08:20:53;;;;;;;18.23;10.18;;;333.70;2329.60;;;;;;5011785;28;20042;-71
2023/04/01 08:23:33;;;;;;;17.63;9.20;;;333.60;2329.60;;;;;;4996523;28;20129;-70
2023/04/01 08:26:05;;;;;;;17.40;10.82;;;333.60;1945.60;;;;;;4996739;28;20141;-69
2023/04/01 08:28:44;;;;;;;14.85;8.60;;;333.60;1996.80;;;;;;5013063;28;20034;-70
2023/04/01 08:31:21;;;;;;;13.02;8.68;;;333.50;2329.60;;;;;;5013463;28;20596;-70
2023/04/01 08:33:48;;;;;;;12.90;7.72;;;333.50;2073.60;;;;;;5013261;28;20060;-70
2023/04/01 08:36:22;;;;;;;10.80;7.47;;;333.50;1971.20;;;;;;5013079;28;20129;-70
2023/04/01 08:38:55;;;;;;;14.95;7.05;;;333.50;2329.60;;;;;;5013047;28;20061;-69
2023/04/01 08:41:21;;;;;;;13.00;8.57;;;333.50;2329.60;;;;;;5012597;28;20030;-71
2023/04/01 08:43:49;;;;;;;17.65;10.23;;;333.20;2329.60;;;;;;5012416;28;20056;-70
2023/04/01 08:46:15;;;;;;;11.80;8.68;;;333.20;2329.60;;;;;;5012581;28;20023;-77
2023/04/01 08:48:41;;;;;;;13.65;9.20;;;333.10;2329.60;;;;;;5012204;28;20103;-70
2023/04/01 08:51:27;;;;;;;11.50;8.95;;;332.90;2329.60;;;;;;5012660;28;20038;-70
2023/04/01 08:53:58;;;;;;;13.98;8.60;;;332.90;2329.60;;;;;;5011638;28;20424;-71
2023/04/01 08:56:36;;;;;;;11.35;7.32;;;332.90;2329.60;;;;;;4996005;28;20553;-71
2023/04/01 08:59:13;;;;;;;10.57;6.93;;;308.10;2278.40;;;;;;5074048;28;20377;-70
2023/04/01 09:01:53;;;;;;;14.57;8.65;;;332.80;2329.60;;;;;;5074128;28;20158;-70
2023/04/01 09:04:28;;;;;;;9.80;5.45;;;308.10;2304.00;;;;;;5074193;28;20025;-70
2023/04/01 09:06:56;;;;;;;12.80;6.47;;;308.10;2304.00;;;;;;5073963;28;20081;-70
2023/04/01 09:10:14;;;;;;;9.60;5.78;;;308.10;2278.40;;;;;;5074201;28;20021;-72
2023/04/01 09:13:10;;;;;;;15.57;8.37;;;308.10;2304.00;;;;;;5054839;28;20059;-82
2023/04/01 09:16:05;;;;;;;14.82;8.02;;;308.10;2304.00;;;;;;5060750;28;20051;-73
2023/04/01 09:18:42;;;;;;;16.02;10.25;;;308.10;2304.00;;;;;;5042746;28;20075;-71
2023/04/01 09:21:41;;;;;;;20.33;12.25;;;308.10;2304.00;;;;;;5055269;28;20044;-70
2023/04/01 09:24:07;;;;;;;15.60;10.63;;;332.80;2329.60;;;;;;5060718;28;20077;-70
2023/04/01 09:27:14;;;;;;;17.35;9.90;;;308.10;2304.00;;;;;;5055520;28;20133;-72
2023/04/01 09:30:24;;;;;;;15.35;11.00;;;308.10;2304.00;;;;;;5059101;28;20059;-76
2023/04/01 09:33:22;;;;;;;16.38;10.50;;;332.80;2329.60;;;;;;5042121;28;20036;-69
2023/04/01 09:35:58;;;;;;;16.45;10.10;;;332.80;2329.60;;;;;;5031464;28;20031;-70
2023/04/01 09:38:36;;;;;;;;;;;332.80;2329.60;;;;;;5054439;28;20083;-70
2023/04/01 09:41:15;;;;;;;18.67;10.80;;;332.80;2329.60;;;;;;5058105;28;19978;-70
2023/04/01 09:43:50;;;;;;;18.48;10.85;;;332.80;2329.60;;;;;;5055427;28;20037;-71
2023/04/01 09:46:40;;;;;;;19.00;11.65;;;332.80;2329.60;;;;;;5059059;28;20543;-70
2023/04/01 09:49:33;;;;;;;12.68;8.55;;;332.90;2329.60;;;;;;5072581;28;20083;-70
2023/04/01 09:52:27;;;;;;;18.83;9.00;;;332.90;2329.60;;;;;;5066624;28;20032;-70
2023/04/01 09:55:11;;;;;;;14.98;9.15;;;332.80;2329.60;;;;;;5071857;28;20411;-71
2023/04/01 09:57:57;;;;;;;12.18;7.65;;;308.10;2304.00;;;;;;5073002;28;20033;-70
2023/04/01 10:00:40;;;;;;;10.57;5.88;;;308.10;2304.00;;;;;;5069766;28;20401;-71
2023/04/01 10:03:25;;;;;;;12.32;5.10;;;308.10;2150.40;;;;;;5069262;28;20055;-69
2023/04/01 10:06:09;;;;;;;11.05;5.45;;;308.00;2176.00;;;;;;5010595;28;20061;-70
2023/04/01 10:08:37;;;;;;;10.70;5.30;;;307.90;2304.00;;;;;;5010953;28;20116;-70
2023/04/01 10:11:05;;;;;;;14.32;5.85;;;307.90;2304.00;;;;;;5010979;28;20045;-68
2023/04/01 10:13:58;;;;;;;7.65;5.20;;;307.90;2304.00;;;;;;5011552;28;20149;-71
2023/04/01 10:16:33;;;;;;;10.38;5.30;;;307.90;2304.00;;;;;;5011227;28;20412;-70
2023/04/01 10:19:23;;;;;;;7.78;4.75;;;307.90;2304.00;;;;;;5010642;28;20103;-70
2023/04/01 10:22:16;;;;;;;13.02;6.70;;;307.90;2304.00;;;;;;5010933;28;20025;-70
2023/04/01 10:24:56;;;;;;;12.27;7.80;;;307.90;2304.00;;;;;;5011449;28;20067;-69
2023/04/01 10:27:45;;;;;;;12.77;5.80;;;308.00;2304.00;;;;;;5010792;28;20109;-74
2023/04/01 10:30:35;;;;;;;11.95;7.03;;;308.00;2304.00;;;;;;5010386;28;20168;-71
2023/04/01 10:33:19;;;;;;;11.38;6.20;;;308.10;2124.80;;;;;;5010627;28;20105;-70
2023/04/01 10:36:00;;;;;;;12.40;7.97;;;308.00;2304.00;;;;;;5008282;28;20053;-74
2023/04/01 10:39:03;;;;;;;16.35;10.80;;;308.00;2304.00;;;;;;5006774;28;20030;-71
2023/04/01 10:41:53;;;;;;;21.30;12.05;;;308.10;2304.00;;;;;;5009762;28;20547;-70
2023/04/01 10:44:24;;;;;;;17.83;8.93;;;308.10;2304.00;;;;;;5072245;28;20112;-70
2023/04/01 10:47:24;;;;;;;20.05;9.55;;;308.10;2124.80;;;;;;5072577;28;20030;-72
2023/04/01 10:50:08;;;;;;;15.35;7.28;;;308.10;1996.80;;;;;;5072148;28;20561;-69
2023/04/01 10:53:12;;;;;;;12.70;5.32;;;308.10;2304.00;;;;;;5070952;28;20036;-71
2023/04/01 10:55:59;;;;;;;12.85;7.40;;;307.90;2304.00;;;;;;5069692;28;20033;-71
2023/04/01 10:58:43;;;;;;;10.90;6.20;;;308.00;2304.00;;;;;;5072699;28;20370;-71
2023/04/01 11:01:42;;;;;;;8.27;5.55;;;308.10;2304.00;;;;;;5071019;28;20045;-77
2023/04/01 11:04:13;;;;;;;12.80;4.70;;;308.00;2304.00;;;;;;5067858;28;20087;-70
2023/04/01 11:07:09;;;;;;;8.85;4.50;;;308.00;2304.00;;;;;;5068538;28;20490;-71
2023/04/01 11:09:47;;;;;;;8.98;4.47;;;308.10;2099.20;;;;;;5068399;28;20035;-74
2023/04/01 11:12:34;;;;;;;8.27;4.30;;;308.10;2304.00;;;;;;5067983;28;20035;-70
2023/04/01 11:15:15;;;;;;;10.63;4.53;;;308.00;2150.40;;;;;;5072245;28;20493;-71
2023/04/01 11:18:29;;;;;;;9.40;4.63;;;308.00;2304.00;;;;;;5067541;28;20473;-71
2023/04/01 11:21:13;;;;;;;8.15;4.13;;;308.10;2124.80;;;;;;5057639;28;20045;-73
2023/04/01 11:23:53;;;;;;;10.95;5.15;;;332.80;1996.80;;;;;;5059151;28;20070;-69
2023/04/01 11:27:04;;;;;;;9.00;4.85;;;332.80;2022.40;;;;;;5063990;28;20498;-71
2023/04/01 11:29:49;;;;;;;9.82;4.65;;;332.80;2201.60;;;;;;5055617;28;20402;-70
2023/04/01 11:32:20;;;;;;;11.95;6.50;;;332.80;2329.60;;;;;;5052639;28;20132;-71
2023/04/01 11:34:49;;;;;;;13.10;6.13;;;332.90;2329.60;;;;;;5055528;28;20039;-71
2023/04/01 11:37:45;;;;;;;8.63;5.63;;;332.90;2329.60;;;;;;5055237;28;20139;-74
2023/04/01 11:40:35;;;;;;;7.45;5.22;;;332.90;2329.60;;;;;;5052380;28;20033;-72
2023/04/01 11:43:29;;;;;;;11.25;5.72;;;332.90;1996.80;;;;;;5053569;28;20514;-75
2023/04/01 11:46:38;;;;;;;10.65;6.70;;;332.80;2329.60;;;;;;5049931;28;20028;-69
2023/04/01 11:49:22;;;;;;;43.85;23.88;;;332.80;2329.60;;;;;;5011919;28;20202;-69
2023/04/01 11:52:01;;;;;;;16.85;7.75;;;332.80;2329.60;;;;;;5012792;28;20545;-69
2023/04/01 11:54:54;;;;;;;13.65;7.97;;;308.10;2304.00;;;;;;5012698;28;20510;-70
2023/04/01 11:57:48;;;;;;;13.30;8.20;;;308.10;2073.60;;;;;;5016607;28;20042;-69
2023/04/01 12:00:35;;;;;;;9.80;5.35;;;308.10;2304.00;;;;;;5019330;28;20092;-69
2023/04/01 12:03:06;;;;;;;;;;;308.10;2201.60;;;;;;5027110;28;20026;-68
2023/04/01 12:05:50;;;;;;;9.77;5.35;;;308.10;2304.00;;;;;;5023551;28;19909;-70
2023/04/01 12:08:27;;;;;;;9.65;4.80;;;308.00;2304.00;;;;;;5026104;28;20030;-70
2023/04/01 12:11:28;;;;;;;;;;;308.00;2304.00;;;;;;5029552;28;20036;-69
2023/04/01 12:13:57;;;;;;;12.10;5.82;;;308.10;2304.00;;;;;;4982306;28;19910;-69
2023/04/01 12:16:31;;;;;;;10.77;5.30;;;308.00;2304.00;;;;;;4993855;28;20120;-71
2023/04/01 12:19:08;;;;;;;11.65;5.70;;;307.90;2304.00;;;;;;4977494;28;20046;-70
2023/04/01 12:21:42;;;;;;;16.80;5.38;;;308.00;2304.00;;;;;;4993427;28;20089;-69
2023/04/01 12:24:56;;;;;;;10.60;5.88;;;308.00;2304.00;;;;;;4993426;28;20030;-69
2023/04/01 12:27:32;;;;;;;25.25;13.88;;;307.90;2304.00;;;;;;4975862;28;20043;-70
2023/04/01 12:30:15;;;;;;;14.55;6.05;;;308.00;2304.00;;;;;;4975869;28;20038;-70
2023/04/01 12:33:04;;;;;;;12.82;5.30;;;308.00;2304.00;;;;;;4975696;28;20048;-69
2023/04/01 12:36:01;;;;;;;11.35;4.93;;;307.90;2304.00;;;;;;4974817;28;20437;-70
2023/04/01 12:38:42;;;;;;;7.63;4.53;;;308.00;2304.00;;;;;;4974278;28;20070;-73
2023/04/01 12:41:10;;;;;;;9.52;5.72;;;307.90;2304.00;;;;;;4979438;28;20046;-69
2023/04/01 12:44:28;;;;;;;9.82;5.57;;;308.10;2304.00;;;;;;4973796;28;20042;-74
2023/04/01 12:47:13;;;;;;;12.32;6.18;;;308.00;2304.00;;;;;;4901823;29;20063;-79
2023/04/01 12:49:53;;;;;;;12.13;7.18;;;308.10;2304.00;;;;;;4954519;29;20536;-69
2023/04/01 12:52:37;;;;;;;11.90;6.38;;;332.80;2329.60;;;;;;4954010;28;20066;-71
2023/04/01 12:55:12;;;;;;;9.35;5.63;;;332.80;2329.60;;;;;;4954499;28;20042;-70